Time;durP1;ratioP1;P1;durP2;ratioP2;P2;SDS_P1;SDS_P2;PMS_P1;PMS_P2;Temp;Humidity;BMP_temperature;BMP_pressure;BME280_temperature;BME280_humidity;BME280_pressure;Samples;Min_cycle;Max_cycle;Signal;HPM_P1;HPM_P2
2023/02/26 00:01:57;;;;;;;5.03;1.17;;;0.60;99.90;;;1.20;100.00;97853.00;5044849;28;20570;-75
2023/02/26 00:04:25;;;;;;;3.47;1.47;;;0.60;99.90;;;1.18;100.00;97840.25;5046395;28;20463;-75
2023/02/26 00:06:55;;;;;;;3.80;1.50;;;0.50;99.90;;;1.15;100.00;97850.81;5046666;28;20479;-75
2023/02/26 00:09:28;;;;;;;4.03;1.80;;;0.50;99.90;;;1.07;100.00;97837.81;5047725;28;20673;-75
2023/02/26 00:11:58;;;;;;;2.90;1.57;;;0.50;99.90;;;1.10;100.00;97849.59;5047490;28;20502;-75
2023/02/26 00:14:29;;;;;;;1.57;1.43;;;0.50;99.90;;;1.05;100.00;97842.25;5046787;28;20472;-74
2023/02/26 00:17:23;;;;;;;2.20;1.70;;;0.40;99.90;;;1.07;100.00;97842.13;5047400;28;21072;-74
2023/02/26 00:19:55;;;;;;;2.83;1.40;;;0.40;99.90;;;1.04;100.00;97850.94;5045946;28;20506;-75
2023/02/26 00:22:27;;;;;;;2.50;1.40;;;0.40;99.90;;;1.02;100.00;97850.25;5047149;28;20462;-75
2023/02/26 00:24:58;;;;;;;3.17;1.80;;;0.40;99.90;;;1.02;100.00;97847.66;5045923;28;20498;-75
2023/02/26 00:27:27;;;;;;;3.10;1.50;;;0.40;99.90;;;0.99;100.00;97855.66;5045174;28;20527;-75
2023/02/26 00:29:58;;;;;;;2.53;1.23;;;0.30;99.90;;;1.01;100.00;97853.75;5047684;28;21026;-74
2023/02/26 00:32:30;;;;;;;4.53;1.57;;;0.30;99.90;;;0.95;100.00;97849.16;5045741;28;20489;-75
2023/02/26 00:35:02;;;;;;;2.67;1.57;;;0.30;99.90;;;0.90;100.00;97851.31;5045436;28;20467;-75
2023/02/26 00:37:59;;;;;;;3.67;1.70;;;0.20;99.90;;;0.90;100.00;97852.09;5046756;28;20553;-75
2023/02/26 00:40:42;;;;;;;3.07;1.23;;;0.10;99.90;;;0.86;100.00;97850.75;5044716;28;21026;-75
2023/02/26 00:43:18;;;;;;;8.10;1.90;;;0.00;99.90;;;0.79;100.00;97854.81;5044660;28;20545;-74
2023/02/26 00:45:59;;;;;;;3.93;2.20;;;-0.10;99.90;;;0.85;100.00;97853.44;5047559;28;20802;-75
2023/02/26 00:48:54;;;;;;;8.03;3.00;;;0.10;99.90;;;0.82;100.00;97851.97;5045979;28;20470;-75
2023/02/26 00:51:35;;;;;;;6.80;2.60;;;0.00;99.90;;;0.82;100.00;97856.28;5046237;28;20488;-75
2023/02/26 00:54:13;;;;;;;7.13;4.30;;;0.00;99.90;;;0.81;100.00;97858.03;5045810;28;20632;-75
2023/02/26 00:56:43;;;;;;;6.70;2.43;;;0.00;99.90;;;0.75;100.00;97861.16;5047107;28;20465;-75
2023/02/26 00:59:12;;;;;;;2.83;1.93;;;-0.10;99.90;;;0.75;100.00;97853.44;5044828;28;20553;-75
2023/02/26 01:01:41;;;;;;;3.83;2.33;;;0.00;99.90;;;0.67;100.00;97862.72;5045841;28;20975;-75
2023/02/26 01:04:13;;;;;;;2.83;1.67;;;-0.20;99.90;;;0.65;100.00;97864.63;5043418;28;20463;-75
2023/02/26 01:06:45;;;;;;;3.63;1.93;;;-0.30;99.90;;;0.59;100.00;97862.59;5048108;28;20960;-74
2023/02/26 01:09:26;;;;;;;2.23;1.53;;;-0.30;99.90;;;0.59;100.00;97867.72;5044090;28;20555;-75
2023/02/26 01:12:00;;;;;;;4.80;2.10;;;-0.40;99.90;;;0.56;100.00;97873.09;5045458;28;20994;-75
2023/02/26 01:14:31;;;;;;;3.37;1.83;;;-0.40;99.90;;;0.60;100.00;97870.16;5047043;28;20491;-75
2023/02/26 01:17:14;;;;;;;2.00;1.70;;;-0.30;99.90;;;0.56;100.00;97871.34;5045857;28;20489;-75
2023/02/26 01:19:53;;;;;;;3.27;2.00;;;-0.30;99.90;;;0.60;100.00;97866.75;5045975;28;20461;-75
2023/02/26 01:22:31;;;;;;;1.80;1.67;;;-0.20;99.90;;;0.59;100.00;97867.72;5045232;28;20504;-74
2023/02/26 01:25:06;;;;;;;2.50;1.90;;;-0.20;99.90;;;0.59;100.00;97867.72;5044490;28;20464;-75
2023/02/26 01:27:38;;;;;;;7.40;2.40;;;-0.10;99.90;;;0.55;100.00;97876.63;5045667;28;20560;-75
2023/02/26 01:30:10;;;;;;;3.80;2.00;;;-0.20;99.90;;;0.45;100.00;97872.25;5043973;28;20479;-75
2023/02/26 01:32:48;;;;;;;3.77;2.07;;;-0.30;99.90;;;0.54;100.00;97869.84;5046489;28;20580;-74
2023/02/26 01:35:39;;;;;;;2.57;1.70;;;-0.20;99.90;;;0.53;100.00;97869.03;5045190;28;20454;-75
2023/02/26 01:38:24;;;;;;;7.07;2.07;;;-0.20;99.90;;;0.54;100.00;97869.84;5046880;28;20446;-75
2023/02/26 01:41:17;;;;;;;2.47;1.23;;;-0.10;99.90;;;0.61;100.00;97868.41;5043760;28;20492;-75
2023/02/26 01:44:04;;;;;;;1.53;1.30;;;0.00;99.90;;;0.62;100.00;97867.47;5043685;28;20516;-75
2023/02/26 01:46:45;;;;;;;10.60;1.97;;;0.00;99.90;;;0.70;100.00;97875.31;5043056;28;20462;-75
2023/02/26 01:49:18;;;;;;;5.70;1.60;;;0.10;99.90;;;0.77;100.00;97872.13;5046331;28;20445;-75
2023/02/26 01:51:52;;;;;;;3.53;0.97;;;0.10;99.90;;;0.80;100.00;97877.00;5044761;28;20491;-75
2023/02/26 01:54:25;;;;;;;4.20;1.60;;;0.20;99.90;;;0.78;100.00;97875.50;5046191;28;20824;-74
2023/02/26 01:57:00;;;;;;;4.73;1.20;;;0.20;99.90;;;0.82;100.00;97869.16;5044420;28;20464;-75
2023/02/26 01:59:32;;;;;;;5.07;1.70;;;0.20;99.90;;;0.87;100.00;97867.00;5044105;28;20458;-75
2023/02/26 02:02:06;;;;;;;4.27;1.57;;;0.30;99.90;;;0.91;100.00;97863.22;5044437;28;20502;-75
2023/02/26 02:04:37;;;;;;;4.27;1.90;;;0.30;99.90;;;0.90;100.00;97867.53;5044822;28;21474;-74
2023/02/26 02:07:06;;;;;;;3.00;1.30;;;0.30;99.90;;;0.95;100.00;97870.56;5045891;28;20490;-75
2023/02/26 02:09:36;;;;;;;2.17;1.43;;;0.40;99.90;;;0.97;100.00;97863.50;5045105;28;20502;-75
2023/02/26 02:12:28;;;;;;;1.20;1.10;;;0.40;99.90;;;1.01;100.00;97866.63;5045707;28;20557;-74
2023/02/26 02:15:11;;;;;;;1.40;1.30;;;0.40;99.90;;;0.97;100.00;97865.28;5045526;28;20575;-74
2023/02/26 02:17:55;;;;;;;4.33;1.90;;;0.40;99.90;;;0.92;100.00;97870.81;5045753;28;20465;-75
2023/02/26 02:20:57;;;;;;;1.47;1.20;;;0.40;99.90;;;0.98;100.00;97865.13;5043545;28;20485;-75
2023/02/26 02:23:37;;;;;;;4.00;1.27;;;0.40;99.90;;;1.04;100.00;97870.72;5044504;28;20504;-75
2023/02/26 02:26:37;;;;;;;1.70;1.20;;;0.40;99.90;;;1.04;100.00;97865.56;5043732;28;20478;-75
2023/02/26 02:29:51;;;;;;;4.53;1.77;;;0.50;99.90;;;1.07;100.00;97867.88;5044802;28;20499;-74
2023/02/26 02:32:27;;;;;;;2.70;1.50;;;0.40;99.90;;;1.06;100.00;97879.94;5045446;28;20627;-75
2023/02/26 02:35:09;;;;;;;5.10;1.47;;;0.40;99.90;;;1.05;100.00;97870.56;5045498;28;20460;-74
2023/02/26 02:37:47;;;;;;;1.77;1.40;;;0.40;99.90;;;1.05;100.00;97870.56;5042725;28;20845;-74
2023/02/26 02:40:21;;;;;;;2.27;1.20;;;0.40;99.90;;;1.08;100.00;97869.50;5044236;28;20503;-74
2023/02/26 02:42:58;;;;;;;3.87;1.90;;;0.40;99.90;;;1.06;100.00;97874.78;5043251;28;20496;-75
2023/02/26 02:45:35;;;;;;;6.83;1.50;;;0.50;99.90;;;1.01;100.00;97876.91;5044517;28;20471;-74
2023/02/26 02:48:14;;;;;;;1.83;1.10;;;0.40;99.90;;;1.05;100.00;97880.88;5044103;28;20465;-75
2023/02/26 02:50:50;;;;;;;4.40;1.43;;;0.50;99.90;;;1.06;100.00;97882.50;5042589;28;20587;-75
2023/02/26 02:53:24;;;;;;;4.37;1.50;;;0.50;99.90;;;1.07;100.00;97886.72;5044406;28;20475;-75
2023/02/26 02:56:02;;;;;;;3.97;1.33;;;0.50;99.90;;;1.11;100.00;97893.19;5043669;28;20465;-74
2023/02/26 02:58:37;;;;;;;3.10;2.10;;;0.50;99.90;;;1.10;100.00;97888.22;5044556;28;20601;-75
2023/02/26 03:01:11;;;;;;;3.23;1.33;;;0.50;99.90;;;1.11;100.00;97895.78;5044359;28;20829;-75
2023/02/26 03:03:50;;;;;;;3.70;1.40;;;0.50;99.90;;;1.05;100.00;97896.31;5042941;28;20906;-74
2023/02/26 03:06:20;;;;;;;2.63;1.33;;;0.40;99.90;;;1.09;100.00;97897.69;5043364;28;20511;-75
2023/02/26 03:08:53;;;;;;;6.50;1.50;;;0.60;99.90;;;1.00;100.00;97894.16;5042770;28;20477;-75
2023/02/26 03:11:22;;;;;;;5.43;1.73;;;0.50;99.90;;;1.01;100.00;97902.66;5043076;28;20510;-75
2023/02/26 03:13:53;;;;;;;3.33;1.60;;;0.40;99.90;;;1.07;100.00;97904.72;5043417;28;20519;-75
2023/02/26 03:16:46;;;;;;;3.00;1.60;;;0.40;99.90;;;1.13;100.00;97908.53;5043280;28;20540;-74
2023/02/26 03:19:26;;;;;;;3.60;1.90;;;0.50;99.90;;;1.11;100.00;97916.38;5044818;28;20497;-74
2023/02/26 03:22:04;;;;;;;3.80;1.63;;;0.50;99.90;;;1.14;100.00;97918.72;5042612;28;20546;-75
2023/02/26 03:24:43;;;;;;;2.03;1.20;;;0.50;99.90;;;1.10;100.00;97912.19;5042095;28;20472;-74
2023/02/26 03:27:25;;;;;;;2.90;1.73;;;0.50;99.90;;;0.98;100.00;97914.03;5044371;28;20461;-74
2023/02/26 03:30:01;;;;;;;1.67;1.33;;;0.30;99.90;;;1.05;100.00;97916.91;5044728;28;20529;-75
2023/02/26 03:32:46;;;;;;;1.60;1.50;;;0.40;99.90;;;1.05;100.00;97914.34;5044362;28;20495;-75
2023/02/26 03:35:25;;;;;;;5.40;1.77;;;0.40;99.90;;;1.05;100.00;97921.22;5044851;28;20455;-75
2023/02/26 03:38:00;;;;;;;1.80;1.20;;;0.50;99.90;;;1.05;100.00;97919.47;5043622;28;20507;-74
2023/02/26 03:40:37;;;;;;;2.03;1.53;;;0.50;99.90;;;1.00;100.00;97927.63;5042504;28;20459;-75
2023/02/26 03:43:12;;;;;;;2.13;1.30;;;0.40;99.90;;;0.90;100.00;97928.53;5042148;28;20465;-75
2023/02/26 03:45:47;;;;;;;2.03;1.60;;;0.30;99.90;;;0.94;100.00;97928.09;5044518;28;20529;-75
2023/02/26 03:48:27;;;;;;;4.10;2.03;;;0.30;99.90;;;0.99;100.00;97925.97;5043947;28;20495;-75
2023/02/26 03:51:04;;;;;;;3.30;1.80;;;0.40;99.90;;;0.93;100.00;97923.13;5043510;28;20597;-75
2023/02/26 03:53:43;;;;;;;1.83;1.60;;;0.30;99.90;;;0.87;100.00;97926.19;5041696;28;20553;-74
2023/02/26 03:56:20;;;;;;;2.00;1.73;;;0.30;99.90;;;0.87;100.00;97928.75;5041866;28;20855;-75
2023/02/26 03:58:49;;;;;;;4.70;1.47;;;0.20;99.90;;;0.90;100.00;97941.38;5043182;28;20527;-75
2023/02/26 04:01:25;;;;;;;7.30;2.10;;;0.30;99.90;;;0.96;100.00;97944.25;5042624;28;20539;-75
2023/02/26 04:04:02;;;;;;;5.90;2.13;;;0.40;99.90;;;0.94;100.00;97945.31;5042154;28;20562;-75
2023/02/26 04:06:34;;;;;;;7.40;2.30;;;0.40;99.90;;;0.91;100.00;97961.00;5042794;28;20538;-75
2023/02/26 04:09:05;;;;;;;2.63;1.80;;;0.40;99.90;;;0.91;100.00;97966.16;5043527;28;20457;-75
2023/02/26 04:11:36;;;;;;;7.40;1.60;;;0.30;99.90;;;0.90;100.00;97977.41;5042556;28;20482;-74
2023/02/26 04:14:06;;;;;;;3.43;1.87;;;0.30;99.90;;;0.90;100.00;97969.69;5042737;28;20518;-74
2023/02/26 04:16:36;;;;;;;4.17;2.23;;;0.20;99.90;;;0.95;100.00;97977.84;5043537;28;20967;-75
2023/02/26 04:19:06;;;;;;;3.00;1.73;;;0.30;99.90;;;0.96;100.00;97974.31;5041954;28;20837;-74
2023/02/26 04:21:37;;;;;;;2.90;1.60;;;0.40;99.90;;;0.97;100.00;97970.81;5043877;28;20477;-75
2023/02/26 04:24:06;;;;;;;2.03;1.40;;;0.30;99.90;;;0.95;100.00;97982.97;5042781;28;21274;-74
2023/02/26 04:26:36;;;;;;;5.10;2.13;;;0.30;99.90;;;0.92;100.00;97983.25;5043026;28;20517;-75
2023/02/26 04:29:05;;;;;;;4.00;1.27;;;0.30;99.90;;;0.95;100.00;97980.41;5047704;28;21099;-75
2023/02/26 04:31:35;;;;;;;1.60;1.40;;;0.30;99.90;;;0.90;100.00;97985.13;5044994;28;20471;-74
2023/02/26 04:34:05;;;;;;;3.70;1.57;;;0.30;99.90;;;0.87;100.00;97990.50;5045792;28;20497;-75
2023/02/26 04:36:34;;;;;;;1.40;1.30;;;0.20;99.90;;;0.90;100.00;97991.06;5046557;28;20557;-75
2023/02/26 04:39:05;;;;;;;3.03;1.57;;;0.20;99.90;;;0.94;100.00;97996.78;5045418;28;20464;-75
2023/02/26 04:41:35;;;;;;;3.03;1.53;;;0.20;99.90;;;0.92;100.00;97993.53;5045068;28;20502;-75
2023/02/26 04:44:06;;;;;;;2.20;1.10;;;0.20;99.90;;;0.84;100.00;97993.34;5045838;28;20500;-75
2023/02/26 04:46:35;;;;;;;1.30;1.20;;;0.20;99.90;;;0.85;100.00;97997.56;5047226;28;20458;-74
2023/02/26 04:49:06;;;;;;;1.30;1.20;;;0.10;99.90;;;0.85;100.00;98008.69;5045109;28;20515;-74
2023/02/26 04:51:36;;;;;;;1.73;1.20;;;0.20;99.90;;;0.89;100.00;98012.63;5046301;28;20473;-75
2023/02/26 04:54:07;;;;;;;2.23;1.37;;;0.20;99.90;;;0.90;100.00;98001.38;5045052;28;20521;-76
2023/02/26 04:56:37;;;;;;;2.00;1.40;;;0.20;99.90;;;0.91;100.00;98002.19;5046559;28;20465;-75
2023/02/26 04:59:05;;;;;;;3.57;1.00;;;0.20;99.90;;;0.90;100.00;98005.72;5046696;28;20515;-75
2023/02/26 05:01:35;;;;;;;1.03;0.93;;;0.20;99.90;;;0.92;100.00;98003.84;5044593;28;21141;-74
2023/02/26 05:04:05;;;;;;;1.10;1.00;;;0.20;99.90;;;0.97;100.00;98006.84;5043787;28;20478;-75
2023/02/26 05:06:36;;;;;;;2.90;1.77;;;0.30;99.90;;;0.95;100.00;97998.41;5044306;28;20829;-74
2023/02/26 05:09:07;;;;;;;3.87;1.57;;;0.20;99.90;;;0.87;100.00;98005.97;5046146;28;20495;-75
2023/02/26 05:11:38;;;;;;;3.27;1.57;;;0.30;99.90;;;0.84;100.00;98003.66;5042604;28;20474;-75
2023/02/26 05:14:08;;;;;;;2.60;1.30;;;0.20;99.90;;;0.86;100.00;98014.63;5041086;28;20486;-74
2023/02/26 05:16:38;;;;;;;7.73;2.10;;;0.20;99.90;;;0.90;100.00;98016.03;5041196;28;20469;-72
2023/02/26 05:19:08;;;;;;;1.57;1.30;;;0.20;99.90;;;0.94;100.00;98030.25;5042707;28;21106;-75
2023/02/26 05:21:37;;;;;;;3.20;1.63;;;0.20;99.90;;;0.95;100.00;98031.88;5045319;28;20561;-75
2023/02/26 05:24:07;;;;;;;2.67;1.40;;;0.20;99.90;;;0.89;100.00;98030.66;5044331;28;20455;-74
2023/02/26 05:26:36;;;;;;;54.60;20.77;;;0.20;99.90;;;0.82;100.00;98036.41;5041603;28;20952;-75
2023/02/26 05:29:06;;;;;;;4.97;2.13;;;0.10;99.90;;;0.80;100.00;98035.75;5040982;28;20978;-75
2023/02/26 05:31:36;;;;;;;1.70;1.37;;;0.10;99.90;;;0.78;100.00;98053.88;5037485;28;20484;-75
2023/02/26 05:34:06;;;;;;;1.30;1.20;;;0.10;99.90;;;0.82;100.00;98054.44;5043591;28;20560;-75
2023/02/26 05:36:35;;;;;;;2.83;1.20;;;0.10;99.90;;;0.83;100.00;98066.38;5044782;28;20835;-75
2023/02/26 05:39:06;;;;;;;4.20;1.73;;;0.10;99.90;;;0.83;100.00;98056.06;5043856;28;20527;-75
2023/02/26 05:41:36;;;;;;;1.93;1.73;;;0.20;99.90;;;0.79;100.00;98060.66;5045167;28;20703;-75
2023/02/26 05:44:07;;;;;;;3.33;1.70;;;0.10;99.90;;;0.85;100.00;98056.75;5044985;28;21251;-75
2023/02/26 05:46:36;;;;;;;1.80;1.60;;;0.10;99.90;;;0.76;100.00;98060.09;5045122;28;20504;-75
2023/02/26 05:49:05;;;;;;;3.13;1.73;;;0.00;99.90;;;0.75;100.00;98054.13;5044789;28;20511;-75
2023/02/26 05:51:35;;;;;;;3.30;1.63;;;0.00;99.90;;;0.70;100.00;98065.72;5042690;28;20464;-75
2023/02/26 05:54:07;;;;;;;3.90;1.77;;;0.00;99.90;;;0.58;100.00;98054.69;5044817;28;20509;-75
2023/02/26 05:56:36;;;;;;;2.60;1.60;;;-0.10;99.90;;;0.57;100.00;98065.91;5044092;28;20491;-75
2023/02/26 05:59:05;;;;;;;4.87;2.00;;;-0.10;99.90;;;0.57;100.00;98059.94;5042813;28;20472;-75
2023/02/26 06:01:36;;;;;;;3.37;1.73;;;-0.10;99.90;;;0.57;100.00;98059.94;5040999;28;20470;-75
2023/02/26 06:04:06;;;;;;;1.90;1.67;;;-0.10;99.90;;;0.55;100.00;98064.41;5039109;28;20476;-74
2023/02/26 06:06:35;;;;;;;4.53;1.33;;;-0.10;99.90;;;0.51;100.00;98066.41;5039748;28;20465;-76
2023/02/26 06:09:07;;;;;;;2.67;1.63;;;-0.10;99.90;;;0.52;100.00;98062.09;5040709;28;20901;-75
2023/02/26 06:11:39;;;;;;;1.57;1.30;;;-0.10;99.90;;;0.39;100.00;98067.38;5039695;28;20477;-75
2023/02/26 06:14:08;;;;;;;2.50;1.73;;;-0.20;99.90;;;0.32;100.00;98067.06;5041085;28;20488;-75
2023/02/26 06:16:39;;;;;;;3.53;1.50;;;-0.30;99.90;;;0.40;100.00;98077.56;5041247;28;20549;-71
2023/02/26 06:19:08;;;;;;;3.20;1.53;;;-0.20;99.90;;;0.17;100.00;98078.56;5041974;28;20463;-75
2023/02/26 06:21:38;;;;;;;1.83;1.53;;;-0.40;99.90;;;0.12;100.00;98085.00;5038974;28;20473;-75
2023/02/26 06:24:10;;;;;;;10.57;5.60;;;-0.50;99.90;;;0.17;100.00;98082.91;5036795;28;20468;-72
2023/02/26 06:26:40;;;;;;;2.73;2.00;;;-0.40;99.90;;;0.12;100.00;98090.97;5040412;28;20546;-75
2023/02/26 06:29:10;;;;;;;1.83;1.70;;;-0.50;99.90;;;0.14;100.00;98085.72;5042182;28;20540;-75
2023/02/26 06:31:40;;;;;;;1.90;1.70;;;-0.50;99.90;;;0.20;100.00;98085.22;5039663;28;20477;-75
2023/02/26 06:34:09;;;;;;;2.20;1.30;;;-0.40;99.90;;;0.14;100.00;98099.34;5040887;28;20918;-75
2023/02/26 06:36:40;;;;;;;1.73;1.30;;;-0.40;99.90;;;0.16;100.00;98092.38;5041474;28;20573;-75
2023/02/26 06:39:12;;;;;;;4.77;2.00;;;-0.50;99.90;;;0.12;100.00;98101.25;5040663;28;20461;-75
2023/02/26 06:41:43;;;;;;;2.37;1.33;;;-0.50;99.90;;;0.18;100.00;98105.06;5042587;28;20560;-75
2023/02/26 06:44:14;;;;;;;2.70;1.77;;;-0.40;99.90;;;0.21;100.00;98108.22;5040469;28;20806;-75
2023/02/26 06:46:45;;;;;;;2.23;1.80;;;-0.40;99.90;;;0.22;100.00;98111.63;5039996;28;20523;-75
2023/02/26 06:49:15;;;;;;;1.40;1.30;;;-0.40;99.90;;;0.22;100.00;98120.16;5040378;28;20573;-75
2023/02/26 06:51:46;;;;;;;2.13;1.50;;;-0.50;99.90;;;0.26;100.00;98118.97;5040628;28;20484;-75
2023/02/26 06:54:18;;;;;;;1.80;1.63;;;-0.40;99.90;;;0.17;100.00;98129.16;5041748;28;20532;-75
2023/02/26 06:56:48;;;;;;;2.93;1.63;;;-0.50;99.90;;;0.23;100.00;98128.69;5041690;28;20466;-75
2023/02/26 06:59:18;;;;;;;2.37;1.80;;;-0.50;99.90;;;0.16;100.00;98133.50;5041668;28;20902;-76
2023/02/26 07:01:48;;;;;;;3.23;1.50;;;-0.50;99.90;;;0.14;100.00;98144.84;5038999;28;20489;-74
2023/02/26 07:04:18;;;;;;;5.13;1.53;;;-0.60;99.90;;;0.13;100.00;98143.19;5039876;28;20569;-75
2023/02/26 07:06:49;;;;;;;8.40;1.73;;;-0.60;99.90;;;0.14;100.00;98147.41;5040133;28;20472;-75
2023/02/26 07:09:21;;;;;;;2.50;1.67;;;-0.60;99.90;;;0.16;100.00;98148.91;5041171;28;20481;-75
2023/02/26 07:11:51;;;;;;;2.40;1.60;;;-0.60;99.90;;;0.20;100.00;98155.47;5040788;28;20532;-75
2023/02/26 07:14:19;;;;;;;1.50;1.40;;;-0.50;99.90;;;0.22;100.00;98157.88;5039478;28;20922;-75
2023/02/26 07:16:49;;;;;;;1.63;1.33;;;-0.50;99.90;;;0.15;100.00;98154.97;5039728;28;20567;-76
2023/02/26 07:19:18;;;;;;;2.10;1.40;;;-0.60;99.90;;;0.18;100.00;98157.31;5040174;28;20461;-75
2023/02/26 07:21:47;;;;;;;2.70;1.23;;;-0.50;99.90;;;0.21;100.00;98164.78;5036581;28;20505;-75
2023/02/26 07:24:18;;;;;;;2.53;1.93;;;-0.50;99.90;;;0.15;100.00;98167.84;5041986;28;20453;-75
2023/02/26 07:26:49;;;;;;;4.23;1.73;;;-0.60;99.90;;;0.16;100.00;98169.47;5039920;28;20463;-75
2023/02/26 07:29:18;;;;;;;2.20;1.53;;;-0.50;99.90;;;0.19;100.00;98176.94;5040243;28;20540;-75
2023/02/26 07:31:48;;;;;;;4.37;1.70;;;-0.50;99.90;;;0.18;100.00;98171.91;5038467;28;20479;-75
2023/02/26 07:34:20;;;;;;;3.33;1.40;;;-0.50;99.90;;;0.23;100.00;98175.78;5039733;28;20464;-75
2023/02/26 07:36:50;;;;;;;1.73;1.30;;;-0.40;99.90;;;0.18;100.00;98169.34;5040309;28;20474;-75
2023/02/26 07:39:20;;;;;;;10.63;2.13;;;-0.40;99.90;;;0.19;100.00;98179.53;5039299;28;21013;-75
2023/02/26 07:41:51;;;;;;;2.20;1.83;;;-0.40;99.90;;;0.10;100.00;98185.38;5039845;28;20561;-75
2023/02/26 07:44:21;;;;;;;1.33;1.20;;;-0.60;99.90;;;0.07;100.00;98193.31;5039070;28;20539;-75
2023/02/26 07:46:51;;;;;;;3.13;1.50;;;-0.60;99.90;;;0.11;100.00;98196.47;5040479;28;20457;-75
2023/02/26 07:49:20;;;;;;;4.27;2.10;;;-0.60;99.90;;;0.12;100.00;98206.63;5038797;28;20480;-75
2023/02/26 07:51:51;;;;;;;6.70;1.53;;;-0.60;99.90;;;0.17;100.00;98208.84;5038210;28;20481;-75
2023/02/26 07:54:20;;;;;;;3.67;1.40;;;-0.50;99.90;;;0.16;100.00;98205.47;5039317;28;20523;-75
2023/02/26 07:56:51;;;;;;;1.33;1.23;;;-0.50;99.90;;;0.20;100.00;98212.00;5038072;28;20492;-75
2023/02/26 07:59:21;;;;;;;2.47;1.77;;;-0.50;99.90;;;0.27;100.00;98212.34;5038744;28;20464;-75
2023/02/26 08:01:52;;;;;;;4.03;1.77;;;-0.40;99.90;;;0.27;100.00;98215.75;5039889;28;20499;-74
2023/02/26 08:04:21;;;;;;;1.70;1.50;;;-0.40;99.90;;;0.27;100.00;98227.78;5041897;28;20515;-76
2023/02/26 08:06:53;;;;;;;2.50;1.63;;;-0.40;99.90;;;0.23;100.00;98224.63;5044939;28;20488;-75
2023/02/26 08:09:23;;;;;;;3.80;1.70;;;-0.40;99.90;;;0.17;100.00;98235.38;5042835;28;20461;-75
2023/02/26 08:11:53;;;;;;;2.10;1.50;;;-0.50;99.90;;;0.19;100.00;98236.06;5044002;28;20976;-75
2023/02/26 08:14:23;;;;;;;5.50;1.93;;;-0.50;99.90;;;0.26;100.00;98241.56;5044062;28;20472;-76
2023/02/26 08:16:53;;;;;;;3.87;1.53;;;-0.40;99.90;;;0.36;100.00;98243.31;5043777;28;20501;-76
2023/02/26 08:19:24;;;;;;;3.00;1.73;;;-0.30;99.90;;;0.38;100.00;98251.72;5043656;28;20462;-76
2023/02/26 08:21:54;;;;;;;1.60;1.50;;;-0.30;99.90;;;0.38;100.00;98249.13;5045311;28;20464;-76
2023/02/26 08:24:24;;;;;;;2.50;1.40;;;-0.20;99.90;;;0.37;100.00;98252.66;5044689;28;20885;-76
2023/02/26 08:26:55;;;;;;;2.20;1.60;;;-0.30;99.90;;;0.38;100.00;98254.28;5041577;28;20468;-75
2023/02/26 08:29:26;;;;;;;1.93;1.50;;;-0.20;99.90;;;0.45;100.00;98262.38;5042879;28;20468;-76
2023/02/26 08:31:56;;;;;;;3.27;1.90;;;-0.20;99.90;;;0.34;100.00;98259.81;5041039;28;20495;-75
2023/02/26 08:34:26;;;;;;;1.60;1.47;;;-0.30;99.90;;;0.36;100.00;98261.31;5042632;28;20964;-76
2023/02/26 08:36:55;;;;;;;2.03;1.57;;;-0.30;99.90;;;0.37;100.00;98278.38;5040810;28;20501;-75
2023/02/26 08:39:25;;;;;;;82.77;26.77;;;-0.20;99.90;;;0.43;100.00;98275.34;5045760;28;20956;-76
2023/02/26 08:41:55;;;;;;;2.50;1.50;;;-0.10;99.90;;;0.40;100.00;98287.59;5045803;28;20599;-75
2023/02/26 08:44:24;;;;;;;1.83;1.30;;;-0.10;99.90;;;0.44;100.00;98287.25;5046098;28;20521;-75
2023/02/26 08:46:55;;;;;;;11.53;1.70;;;-0.10;99.90;;;0.50;100.00;98289.34;5045190;28;20496;-75
2023/02/26 08:49:24;;;;;;;3.13;1.50;;;-0.10;99.90;;;0.60;100.00;98286.88;5045995;28;21140;-75
2023/02/26 08:51:53;;;;;;;4.67;1.70;;;0.00;99.90;;;0.70;100.00;98289.56;5046149;28;20462;-76
2023/02/26 08:54:22;;;;;;;7.93;1.90;;;0.10;99.90;;;0.67;100.00;98293.19;5044270;28;20968;-75
2023/02/26 08:56:54;;;;;;;1.40;1.30;;;0.00;99.90;;;0.69;100.00;98291.34;5045740;28;20497;-77
2023/02/26 08:59:25;;;;;;;1.87;1.50;;;0.10;99.90;;;0.74;100.00;98299.50;5046719;28;20466;-76
2023/02/26 09:01:54;;;;;;;3.37;1.20;;;0.10;99.90;;;0.77;100.00;98291.53;5045716;28;20911;-75
2023/02/26 09:04:25;;;;;;;1.10;1.00;;;0.10;99.90;;;0.75;100.00;98295.16;5046049;28;20470;-75
2023/02/26 09:06:58;;;;;;;3.37;1.70;;;0.10;99.90;;;0.79;100.00;98296.56;5045931;28;21056;-75
2023/02/26 09:09:28;;;;;;;1.50;1.40;;;0.20;99.90;;;0.86;100.00;98292.59;5046738;28;20880;-75
2023/02/26 09:11:59;;;;;;;1.27;1.17;;;0.20;99.90;;;0.85;100.00;98298.66;5045693;28;20828;-75
2023/02/26 09:14:30;;;;;;;1.33;1.13;;;0.20;99.90;;;0.85;100.00;98296.09;5043424;28;20497;-76
2023/02/26 09:16:59;;;;;;;2.00;1.10;;;0.30;99.90;;;0.83;100.00;98292.84;5044585;28;20485;-75
2023/02/26 09:19:29;;;;;;;2.07;1.30;;;0.20;99.90;;;0.90;100.00;98288.84;5044632;28;20848;-75
2023/02/26 09:21:58;;;;;;;2.83;1.50;;;0.30;99.90;;;0.92;100.00;98289.53;5045993;28;20627;-76
2023/02/26 09:24:28;;;;;;;1.37;1.10;;;0.30;99.90;;;0.96;100.00;98296.91;5044408;28;20507;-76
2023/02/26 09:26:57;;;;;;;4.20;1.30;;;0.30;99.90;;;1.05;100.00;98302.22;5043878;28;20469;-75
2023/02/26 09:29:29;;;;;;;1.43;1.17;;;0.40;99.90;;;1.08;100.00;98302.03;5044546;28;21100;-75
2023/02/26 09:31:59;;;;;;;9.07;1.23;;;0.40;99.90;;;1.08;100.00;98300.22;5045061;28;20580;-76
2023/02/26 09:34:29;;;;;;;2.10;1.03;;;0.40;99.90;;;1.03;100.00;98299.78;5043944;28;20468;-75
2023/02/26 09:36:58;;;;;;;5.93;1.60;;;0.30;99.90;;;1.09;100.00;98309.59;5046064;28;20754;-75
2023/02/26 09:39:27;;;;;;;3.90;1.37;;;0.40;99.90;;;1.11;100.00;98309.50;5045465;28;20554;-76
2023/02/26 09:42:05;;;;;;;1.73;1.47;;;0.60;99.90;;;1.11;100.00;98315.44;5043653;28;20558;-75
2023/02/26 09:44:38;;;;;;;168.13;58.93;;;0.50;99.90;;;1.16;100.00;98313.31;5043517;28;20794;-72
2023/02/26 09:47:17;;;;;;;2.70;1.60;;;0.60;99.90;;;1.17;100.00;98322.69;5043778;28;21030;-76
2023/02/26 09:49:56;;;;;;;4.47;1.10;;;0.60;99.90;;;1.20;100.00;98327.59;5045620;28;20489;-76
2023/02/26 09:52:35;;;;;;;1.20;1.00;;;0.60;99.90;;;1.14;100.00;98332.41;5045670;28;20475;-76
2023/02/26 09:55:15;;;;;;;2.20;1.00;;;0.50;99.90;;;1.16;100.00;98333.09;5045082;28;20562;-76
2023/02/26 09:57:51;;;;;;;1.40;1.20;;;0.60;99.90;;;1.23;100.00;98327.34;5046149;28;20477;-76
2023/02/26 10:00:32;;;;;;;5.03;1.43;;;0.60;99.90;;;1.28;100.00;98332.97;5043939;28;21012;-76
2023/02/26 10:03:19;;;;;;;2.33;1.20;;;0.60;99.90;;;1.35;100.00;98326.41;5044158;28;20548;-76
2023/02/26 10:06:22;;;;;;;1.40;1.20;;;0.70;99.90;;;1.39;100.00;98327.75;5045277;28;20465;-76
2023/02/26 10:09:24;;;;;;;2.90;1.30;;;0.80;99.90;;;1.41;99.95;98337.94;5044481;28;20545;-76
2023/02/26 10:12:02;;;;;;;1.10;1.00;;;0.80;99.90;;;1.36;98.29;98333.16;5044416;28;21019;-76
2023/02/26 10:14:40;;;;;;;2.00;1.50;;;0.70;99.90;;;1.39;98.05;98335.47;5043588;28;20555;-76
2023/02/26 10:17:24;;;;;;;1.70;1.20;;;0.80;99.90;;;1.44;98.59;98343.69;5044424;28;20498;-76
2023/02/26 10:20:01;;;;;;;2.80;1.57;;;0.80;99.90;;;1.34;98.37;98335.06;5045479;28;20585;-76
2023/02/26 10:22:37;;;;;;;1.93;1.47;;;0.70;99.90;;;1.44;98.66;98342.84;5045292;28;20960;-75
2023/02/26 10:25:14;;;;;;;1.20;1.00;;;0.80;99.90;;;1.48;100.00;98347.66;5044359;28;20459;-75
2023/02/26 10:27:58;;;;;;;0.90;0.90;;;0.90;99.90;;;1.53;100.00;98357.56;5044683;28;20475;-75
2023/02/26 10:30:36;;;;;;;1.90;1.40;;;0.90;99.90;;;1.58;99.23;98352.06;5042920;28;20577;-75
2023/02/26 10:33:20;;;;;;;3.40;1.70;;;0.90;99.90;;;1.64;99.90;98348.97;5044376;28;20468;-75
2023/02/26 10:35:58;;;;;;;4.53;1.93;;;1.00;99.90;;;1.64;99.72;98352.38;5044678;28;20484;-76
2023/02/26 10:38:31;;;;;;;2.30;1.57;;;1.10;99.90;;;1.71;100.00;98357.84;5042911;28;20498;-75
2023/02/26 10:41:10;;;;;;;2.67;1.30;;;1.10;99.90;;;1.76;100.00;98361.72;5042497;28;20463;-75
2023/02/26 10:43:44;;;;;;;2.93;1.30;;;1.10;99.90;;;1.78;100.00;98364.16;5044319;28;20468;-75
2023/02/26 10:46:32;;;;;;;2.10;1.17;;;1.10;99.90;;;1.85;100.00;98367.88;5043870;28;20524;-75
2023/02/26 10:49:52;;;;;;;1.53;0.90;;;1.20;99.90;;;1.88;98.71;98368.44;5044220;28;20545;-75
2023/02/26 10:52:25;;;;;;;3.43;1.23;;;1.20;99.90;;;1.85;96.75;98378.19;5043475;28;20471;-75